createdAt,value
2018-11-03T00:01:06.443Z,14.40
2018-11-03T00:02:06.239Z,14.20
2018-11-03T00:03:59.604Z,14.80
2018-11-03T00:04:59.568Z,14.80
2018-11-03T00:06:53.561Z,15.40
2018-11-03T00:07:53.008Z,15.20
2018-11-03T00:09:45.805Z,14.50
2018-11-03T00:10:45.768Z,15.00
2018-11-03T00:12:38.660Z,14.90
2018-11-03T00:13:38.780Z,14.70
2018-11-03T00:15:32.016Z,15.00
2018-11-03T00:16:31.980Z,15.50
2018-11-03T00:18:25.427Z,15.20
2018-11-03T00:19:25.390Z,15.60
2018-11-03T00:21:19.833Z,15.30
2018-11-03T00:22:18.752Z,14.80
2018-11-03T00:24:11.751Z,15.30
2018-11-03T00:25:11.612Z,15.20
2018-11-03T00:27:04.957Z,15.00
2018-11-03T00:28:04.958Z,14.50
2018-11-03T00:29:58.336Z,14.70
2018-11-03T00:30:58.267Z,14.90
2018-11-03T00:32:51.734Z,13.90
2018-11-03T00:33:51.124Z,13.90
2018-11-03T00:35:44.499Z,14.90
2018-11-03T00:36:44.476Z,14.20
2018-11-03T00:38:37.884Z,14.00
2018-11-03T00:39:37.821Z,13.50
2018-11-03T00:41:30.734Z,14.70
2018-11-03T00:42:30.908Z,14.40
2018-11-03T00:44:24.081Z,13.60
2018-11-03T00:45:24.012Z,14.60
2018-11-03T00:47:16.936Z,14.20
2018-11-03T00:48:16.884Z,14.50
2018-11-03T00:50:10.589Z,14.80
2018-11-03T00:51:10.230Z,14.80
2018-11-03T00:53:03.926Z,14.90
2018-11-03T00:54:03.582Z,14.90
2018-11-03T00:55:56.961Z,15.50
2018-11-03T00:56:56.918Z,14.90
2018-11-03T00:58:49.856Z,15.50
2018-11-03T00:59:49.781Z,14.60
2018-11-03T01:01:42.777Z,15.00
2018-11-03T01:02:42.624Z,14.80
2018-11-03T01:04:35.543Z,14.70
2018-11-03T01:05:35.513Z,15.00
2018-11-03T01:07:28.873Z,14.10
2018-11-03T01:08:28.846Z,14.70
2018-11-03T01:10:23.509Z,15.40
2018-11-03T01:11:23.171Z,14.40
2018-11-03T01:13:16.575Z,14.60
2018-11-03T01:14:16.549Z,15.20
2018-11-03T01:16:09.998Z,14.70
2018-11-03T01:17:09.887Z,14.20
2018-11-03T01:19:03.273Z,14.40
2018-11-03T01:20:03.210Z,15.70
2018-11-03T01:21:56.586Z,14.10
2018-11-03T01:22:56.540Z,13.60
2018-11-03T01:24:49.666Z,14.30
2018-11-03T01:25:49.423Z,14.90
2018-11-03T01:27:42.299Z,13.90
2018-11-03T01:28:42.435Z,14.20
2018-11-03T01:30:35.862Z,13.50
2018-11-03T01:31:35.638Z,14.10
2018-11-03T01:33:29.025Z,14.70
2018-11-03T01:34:29.204Z,14.50
2018-11-03T01:36:22.425Z,14.20
2018-11-03T01:37:22.380Z,13.70
2018-11-03T01:39:15.864Z,14.40
2018-11-03T01:40:15.707Z,13.60
2018-11-03T01:42:09.827Z,14.40
2018-11-03T01:43:09.114Z,14.20
2018-11-03T01:45:02.050Z,13.90
2018-11-03T01:46:01.988Z,14.20
2018-11-03T01:47:55.621Z,14.40
2018-11-03T01:48:55.924Z,13.70
2018-11-03T01:50:49.715Z,13.90
2018-11-03T01:51:49.692Z,14.00
2018-11-03T01:53:43.056Z,14.50
2018-11-03T01:54:43.020Z,14.80
2018-11-03T01:56:36.402Z,14.50
2018-11-03T01:57:36.351Z,14.70
2018-11-03T01:59:29.263Z,12.90
2018-11-03T02:00:29.223Z,13.40
2018-11-03T02:02:22.594Z,12.50
2018-11-03T02:03:22.558Z,13.00
2018-11-03T02:05:15.544Z,12.60
2018-11-03T02:06:15.426Z,12.70
2018-11-03T02:08:08.302Z,12.70
2018-11-03T02:09:08.291Z,12.90
2018-11-03T02:11:01.762Z,12.50
2018-11-03T02:12:01.620Z,12.30
2018-11-03T02:13:54.789Z,12.40
2018-11-03T02:14:54.502Z,11.90
2018-11-03T02:16:47.844Z,12.40
2018-11-03T02:17:47.809Z,12.40
2018-11-03T02:19:42.416Z,12.30
2018-11-03T02:20:42.132Z,12.00
2018-11-03T02:22:35.831Z,12.50
2018-11-03T02:23:35.535Z,13.10
2018-11-03T02:25:29.008Z,12.90
2018-11-03T02:26:28.683Z,12.40
2018-11-03T02:28:22.115Z,12.10
2018-11-03T02:29:21.981Z,12.80
2018-11-03T02:31:15.481Z,12.70
2018-11-03T02:32:15.329Z,12.60
2018-11-03T02:34:08.998Z,13.20
2018-11-03T02:35:08.699Z,12.20
2018-11-03T02:37:02.177Z,12.30
2018-11-03T02:38:02.045Z,12.70
2018-11-03T02:39:55.432Z,11.50
2018-11-03T02:40:55.444Z,11.30
2018-11-03T02:42:48.753Z,11.60
2018-11-03T02:43:48.757Z,12.90
2018-11-03T02:45:42.117Z,12.20
2018-11-03T02:46:42.097Z,11.70
2018-11-03T02:48:35.487Z,11.70
2018-11-03T02:49:35.432Z,11.20
2018-11-03T02:51:29.047Z,11.30
2018-11-03T02:52:28.757Z,10.90
2018-11-03T02:54:22.161Z,11.90
2018-11-03T02:55:22.109Z,12.40
2018-11-03T02:57:15.495Z,14.90
2018-11-03T02:58:15.472Z,15.70
2018-11-03T03:00:08.513Z,20.00
2018-11-03T03:01:08.323Z,22.00
2018-11-03T03:03:01.437Z,22.50
2018-11-03T03:04:01.220Z,24.00
2018-11-03T03:05:54.039Z,21.60
2018-11-03T03:06:54.034Z,19.50
2018-11-03T03:08:47.475Z,27.00
2018-11-03T03:09:46.872Z,23.50
2018-11-03T03:11:40.598Z,21.90
2018-11-03T03:12:40.266Z,21.40
2018-11-03T03:14:33.178Z,18.70
2018-11-03T03:15:33.128Z,19.10
2018-11-03T03:17:26.565Z,20.00
2018-11-03T03:18:26.456Z,24.50
2018-11-03T03:20:19.418Z,24.30
2018-11-03T03:21:19.398Z,27.20
2018-11-03T03:23:12.955Z,26.10
2018-11-03T03:24:12.595Z,27.90
2018-11-03T03:26:06.255Z,23.00
2018-11-03T03:27:05.949Z,20.00
2018-11-03T03:28:59.484Z,14.10
2018-11-03T03:29:59.305Z,13.50
2018-11-03T03:31:52.877Z,13.10
2018-11-03T03:32:52.647Z,12.50
2018-11-03T03:34:46.118Z,11.00
2018-11-03T03:35:45.985Z,10.80
2018-11-03T03:37:39.344Z,10.60
2018-11-03T03:38:39.316Z,10.60
2018-11-03T03:40:32.698Z,10.60
2018-11-03T03:41:32.651Z,10.90
2018-11-03T03:43:26.255Z,10.90
2018-11-03T03:44:26.024Z,10.80
2018-11-03T03:46:19.043Z,10.60
2018-11-03T03:47:18.845Z,11.00
2018-11-03T03:49:12.224Z,10.80
2018-11-03T03:50:12.184Z,11.30
2018-11-03T03:52:05.291Z,11.30
2018-11-03T03:53:05.073Z,11.20
2018-11-03T03:54:58.776Z,11.50
2018-11-03T03:55:58.423Z,11.20
2018-11-03T03:57:52.009Z,11.70
2018-11-03T03:58:51.739Z,11.40
2018-11-03T04:00:45.165Z,11.20
2018-11-03T04:01:45.076Z,11.30
2018-11-03T04:03:39.494Z,12.40
2018-11-03T04:04:39.415Z,12.50
2018-11-03T04:06:33.513Z,12.00
2018-11-03T04:07:33.323Z,12.00
2018-11-03T04:09:26.733Z,11.80
2018-11-03T04:10:26.741Z,11.70
2018-11-03T04:12:19.557Z,11.50
2018-11-03T04:13:19.521Z,11.50
2018-11-03T04:15:15.065Z,12.20
2018-11-03T04:16:13.600Z,12.30
2018-11-03T04:18:27.621Z,11.40
2018-11-03T04:19:07.765Z,11.90
2018-11-03T04:20:59.365Z,12.20
2018-11-03T04:21:59.152Z,12.10
2018-11-03T04:23:52.095Z,12.90
2018-11-03T04:24:55.604Z,12.90
2018-11-03T04:26:45.403Z,12.50
2018-11-03T04:27:44.879Z,13.40
2018-11-03T04:29:38.302Z,11.90
2018-11-03T04:30:38.218Z,12.40
2018-11-03T04:32:31.635Z,12.50
2018-11-03T04:33:31.557Z,12.90
2018-11-03T04:35:25.042Z,13.50
2018-11-03T04:36:24.956Z,14.00
2018-11-03T04:38:17.910Z,12.30
2018-11-03T04:39:17.810Z,12.60
2018-11-03T04:42:01.779Z,13.70
2018-11-03T04:43:01.732Z,13.10
2018-11-03T04:44:54.631Z,12.50
2018-11-03T04:45:54.626Z,13.90
2018-11-03T04:47:48.123Z,12.70
2018-11-03T04:48:47.925Z,13.10
2018-11-03T04:50:40.824Z,12.90
2018-11-03T04:51:40.812Z,13.20
2018-11-03T04:55:06.466Z,13.00
2018-11-03T04:56:06.310Z,12.80
2018-11-03T04:58:05.356Z,13.10
2018-11-03T04:58:59.158Z,13.40
2018-11-03T05:00:52.051Z,13.80
2018-11-03T05:01:52.081Z,12.90
2018-11-03T05:03:45.417Z,13.40
2018-11-03T05:04:45.375Z,13.70
2018-11-03T05:06:39.442Z,13.60
2018-11-03T05:07:39.277Z,13.00
2018-11-03T05:09:32.141Z,12.70
2018-11-03T05:10:32.218Z,13.70
2018-11-03T05:12:25.534Z,13.20
2018-11-03T05:13:25.493Z,13.60
2018-11-03T05:15:18.901Z,14.10
2018-11-03T05:16:18.833Z,14.60
2018-11-03T05:18:12.232Z,14.10
2018-11-03T05:19:12.162Z,14.10
2018-11-03T05:21:05.704Z,14.20
2018-11-03T05:22:05.513Z,13.60
2018-11-03T05:23:58.480Z,14.20
2018-11-03T05:24:58.388Z,13.40
2018-11-03T05:26:51.779Z,14.90
2018-11-03T05:27:51.712Z,14.30
2018-11-03T05:29:45.169Z,13.20
2018-11-03T05:30:45.134Z,13.60
2018-11-03T05:32:37.992Z,13.60
2018-11-03T05:33:37.966Z,13.60
2018-11-03T05:35:30.846Z,14.30
2018-11-03T05:36:30.808Z,13.80
2018-11-03T05:38:24.259Z,14.00
2018-11-03T05:39:24.204Z,14.90
2018-11-03T05:41:17.576Z,14.30
2018-11-03T05:42:17.542Z,14.70
2018-11-03T05:44:10.440Z,14.00
2018-11-03T05:45:10.396Z,14.20
2018-11-03T05:47:03.767Z,13.30
2018-11-03T05:48:03.730Z,13.40
2018-11-03T05:49:57.111Z,15.20
2018-11-03T05:50:57.081Z,13.90
2018-11-03T05:52:50.458Z,14.00
2018-11-03T05:53:50.418Z,13.70
2018-11-03T05:55:43.922Z,13.50
2018-11-03T05:56:43.824Z,14.50
2018-11-03T05:58:39.389Z,13.80
2018-11-03T05:59:36.680Z,13.90
2018-11-03T06:01:29.846Z,14.30
2018-11-03T06:02:29.562Z,14.40
2018-11-03T06:04:22.474Z,14.60
2018-11-03T06:05:22.387Z,14.70
2018-11-03T06:07:15.745Z,14.20
2018-11-03T06:08:15.746Z,14.30
2018-11-03T06:10:08.853Z,14.50
2018-11-03T06:11:08.580Z,14.10
2018-11-03T06:13:01.589Z,15.00
2018-11-03T06:14:01.409Z,14.20
2018-11-03T06:15:54.950Z,15.10
2018-11-03T06:16:54.747Z,14.30
2018-11-03T06:18:48.133Z,15.10
2018-11-03T06:19:48.093Z,15.40
2018-11-03T06:21:41.695Z,15.30
2018-11-03T06:22:41.675Z,15.90
2018-11-03T06:24:34.400Z,14.60
2018-11-03T06:25:34.387Z,15.20
2018-11-03T06:27:27.742Z,15.10
2018-11-03T06:28:27.699Z,14.80
2018-11-03T06:30:20.596Z,15.00
2018-11-03T06:31:20.556Z,14.70
2018-11-03T06:33:13.924Z,15.70
2018-11-03T06:34:13.891Z,16.20
2018-11-03T06:36:06.856Z,15.40
2018-11-03T06:37:06.729Z,15.10
2018-11-03T06:38:59.707Z,16.30
2018-11-03T06:39:59.585Z,15.90
2018-11-03T06:41:53.005Z,15.60
2018-11-03T06:42:52.998Z,15.40
2018-11-03T06:44:45.806Z,15.20
2018-11-03T06:45:45.768Z,14.70
2018-11-03T06:47:38.764Z,14.70
2018-11-03T06:48:38.619Z,15.40
2018-11-03T06:50:32.007Z,16.40
2018-11-03T06:51:31.447Z,15.10
2018-11-03T06:53:24.328Z,16.40
2018-11-03T06:54:24.296Z,16.50
2018-11-03T06:56:17.218Z,15.20
2018-11-03T06:57:17.146Z,16.00
2018-11-03T06:59:10.517Z,16.10
2018-11-03T07:00:10.475Z,15.50
2018-11-03T07:02:04.436Z,14.80
2018-11-03T07:03:03.843Z,15.00
2018-11-03T07:04:57.234Z,14.20
2018-11-03T07:05:57.168Z,14.60
2018-11-03T07:07:50.668Z,15.10
2018-11-03T07:08:50.533Z,15.20
2018-11-03T07:10:44.044Z,15.80
2018-11-03T07:11:43.964Z,15.30
2018-11-03T07:13:36.710Z,15.20
2018-11-03T07:14:36.684Z,15.70
2018-11-03T07:16:29.626Z,15.60
2018-11-03T07:17:29.555Z,15.60
2018-11-03T07:19:22.517Z,16.90
2018-11-03T07:20:22.396Z,16.20
2018-11-03T07:22:15.749Z,16.70
2018-11-03T07:23:15.726Z,17.10
2018-11-03T07:25:08.664Z,17.00
2018-11-03T07:26:08.578Z,17.00
2018-11-03T07:28:01.946Z,17.10
2018-11-03T07:29:01.907Z,16.60
2018-11-03T07:30:55.368Z,18.60
2018-11-03T07:31:55.250Z,17.80
2018-11-03T07:33:48.637Z,16.60
2018-11-03T07:34:48.623Z,19.20
2018-11-03T07:36:41.531Z,18.00
2018-11-03T07:37:44.318Z,17.50
2018-11-03T07:39:35.822Z,20.40
2018-11-03T07:40:35.797Z,19.00
2018-11-03T07:42:29.796Z,17.60
2018-11-03T07:43:29.695Z,16.40
2018-11-03T07:45:23.065Z,16.90
2018-11-03T07:46:23.025Z,15.70
2018-11-03T07:48:16.086Z,17.00
2018-11-03T07:49:16.282Z,16.80
2018-11-03T07:51:08.858Z,16.80
2018-11-03T07:52:08.832Z,16.00
2018-11-03T07:54:01.723Z,16.50
2018-11-03T07:55:01.671Z,16.00
2018-11-03T07:56:55.072Z,15.80
2018-11-03T07:57:55.006Z,15.30
2018-11-03T07:59:48.412Z,15.80
2018-11-03T08:00:48.376Z,15.10
2018-11-03T08:02:41.737Z,13.80
2018-11-03T08:03:41.710Z,13.80
2018-11-03T08:05:34.604Z,13.50
2018-11-03T08:06:34.571Z,13.50
2018-11-03T08:08:28.471Z,13.30
2018-11-03T08:09:27.893Z,12.70
2018-11-03T08:11:20.779Z,13.00
2018-11-03T08:12:20.756Z,13.20
2018-11-03T08:14:13.635Z,13.10
2018-11-03T08:15:13.592Z,13.30
2018-11-03T08:17:06.490Z,11.60
2018-11-03T08:18:06.448Z,12.30
2018-11-03T08:19:59.315Z,12.30
2018-11-03T08:20:59.296Z,11.80
2018-11-03T08:22:52.663Z,11.60
2018-11-03T08:23:52.703Z,11.20
2018-11-03T08:25:46.004Z,13.20
2018-11-03T08:26:45.992Z,11.80
2018-11-03T08:28:38.879Z,12.20
2018-11-03T08:29:38.836Z,12.20
2018-11-03T08:31:31.828Z,12.20
2018-11-03T08:32:31.705Z,12.60
2018-11-03T08:34:24.592Z,13.30
2018-11-03T08:35:24.644Z,12.00
2018-11-03T08:37:18.077Z,12.50
2018-11-03T08:38:17.396Z,13.40
2018-11-03T08:40:10.810Z,12.90
2018-11-03T08:41:10.759Z,12.70
2018-11-03T08:43:04.111Z,12.00
2018-11-03T08:44:04.095Z,12.30
2018-11-03T08:45:57.512Z,11.90
2018-11-03T08:46:57.437Z,11.80
2018-11-03T08:48:50.482Z,13.70
2018-11-03T08:49:50.315Z,12.50
2018-11-03T08:51:44.234Z,12.30
2018-11-03T08:52:44.415Z,12.20
2018-11-03T08:54:37.598Z,12.80
2018-11-03T08:55:38.139Z,13.50
2018-11-03T08:57:31.127Z,12.20
2018-11-03T08:58:30.949Z,13.30
2018-11-03T09:00:24.337Z,12.80
2018-11-03T09:01:24.272Z,13.40
2018-11-03T09:03:17.312Z,14.40
2018-11-03T09:04:17.101Z,13.50
2018-11-03T09:06:10.509Z,14.10
2018-11-03T09:07:10.476Z,14.60
2018-11-03T09:09:03.605Z,13.70
2018-11-03T09:10:03.641Z,13.70
2018-11-03T09:11:57.255Z,15.00
2018-11-03T09:12:56.670Z,13.90
2018-11-03T09:14:49.833Z,14.00
2018-11-03T09:15:49.523Z,13.90
2018-11-03T09:17:42.883Z,13.90
2018-11-03T09:18:42.848Z,13.60
2018-11-03T09:20:37.235Z,13.40
2018-11-03T09:21:37.342Z,13.50
2018-11-03T09:23:30.144Z,15.30
2018-11-03T09:24:30.070Z,15.00
2018-11-03T09:26:23.567Z,16.10
2018-11-03T09:27:23.399Z,15.60
2018-11-03T09:29:16.792Z,16.00
2018-11-03T09:30:16.775Z,15.40
2018-11-03T09:32:10.251Z,15.90
2018-11-03T09:33:11.150Z,15.30
2018-11-03T09:35:03.513Z,16.10
2018-11-03T09:36:04.283Z,15.80
2018-11-03T09:37:57.030Z,16.10
2018-11-03T09:38:56.899Z,16.10
2018-11-03T09:40:50.223Z,16.80
2018-11-03T09:41:50.174Z,16.20
2018-11-03T09:43:43.681Z,16.00
2018-11-03T09:44:43.551Z,15.50
2018-11-03T09:46:36.927Z,15.60
2018-11-03T09:47:36.924Z,15.50
2018-11-03T09:49:29.761Z,15.10
2018-11-03T09:50:29.787Z,14.40
2018-11-03T09:52:23.110Z,14.80
2018-11-03T09:53:23.116Z,14.60
2018-11-03T09:55:15.986Z,14.40
2018-11-03T09:56:15.963Z,14.80
2018-11-03T09:58:09.886Z,14.60
2018-11-03T09:59:10.375Z,14.30
2018-11-03T10:01:02.769Z,14.70
2018-11-03T10:02:02.724Z,14.40
2018-11-03T10:03:56.234Z,14.00
2018-11-03T10:04:56.083Z,13.80
2018-11-03T10:06:49.060Z,13.00
2018-11-03T10:07:48.916Z,13.30
2018-11-03T10:09:42.390Z,13.60
2018-11-03T10:10:42.314Z,14.00
2018-11-03T10:12:35.230Z,13.60
2018-11-03T10:13:35.196Z,13.80
2018-11-03T10:15:28.041Z,14.00
2018-11-03T10:16:28.030Z,14.50
2018-11-03T10:18:20.981Z,14.50
2018-11-03T10:19:20.880Z,15.10
2018-11-03T10:21:14.256Z,13.80
2018-11-03T10:22:14.264Z,13.40
2018-11-03T10:24:07.635Z,14.60
2018-11-03T10:25:07.604Z,14.10
2018-11-03T10:27:01.539Z,14.10
2018-11-03T10:28:00.948Z,14.50
2018-11-03T10:29:53.848Z,14.90
2018-11-03T10:30:53.833Z,14.40
2018-11-03T10:32:46.834Z,14.80
2018-11-03T10:33:46.730Z,15.50
2018-11-03T10:35:40.085Z,14.50
2018-11-03T10:36:40.027Z,14.30
2018-11-03T10:38:32.905Z,15.30
2018-11-03T10:39:32.881Z,15.60
2018-11-03T10:41:26.268Z,15.00
2018-11-03T10:42:26.231Z,15.50
2018-11-03T10:44:19.159Z,15.40
2018-11-03T10:45:19.076Z,15.20
2018-11-03T10:47:12.558Z,15.10
2018-11-03T10:48:12.435Z,14.50
2018-11-03T10:50:05.329Z,14.50
2018-11-03T10:51:05.317Z,14.00
2018-11-03T10:52:58.268Z,14.90
2018-11-03T10:53:58.172Z,15.00
2018-11-03T10:55:51.611Z,14.40
2018-11-03T10:56:51.633Z,14.40
2018-11-03T10:58:44.418Z,14.30
2018-11-03T10:59:45.626Z,13.10
2018-11-03T11:01:37.855Z,13.50
2018-11-03T11:02:39.237Z,13.90
2018-11-03T11:04:30.990Z,13.60
2018-11-03T11:05:30.691Z,14.40
2018-11-03T11:07:23.647Z,14.10
2018-11-03T11:08:23.839Z,14.40
2018-11-03T11:10:16.504Z,12.90
2018-11-03T11:11:16.404Z,13.40
2018-11-03T11:13:09.962Z,13.50
2018-11-03T11:14:09.880Z,14.00
2018-11-03T11:16:02.810Z,14.30
2018-11-03T11:17:02.738Z,13.30
2018-11-03T11:18:57.095Z,11.30
2018-11-03T11:19:55.981Z,11.80
2018-11-03T11:21:49.422Z,12.10
2018-11-03T11:22:49.371Z,12.20
2018-11-03T11:24:42.967Z,11.00
2018-11-03T11:25:42.745Z,10.60
2018-11-03T11:27:36.124Z,9.50
2018-11-03T11:28:36.099Z,9.90
2018-11-03T11:30:29.206Z,10.00
2018-11-03T11:31:29.096Z,9.50
2018-11-03T11:33:22.143Z,9.20
2018-11-03T11:34:22.220Z,8.20
2018-11-03T11:36:15.365Z,7.70
2018-11-03T11:37:15.358Z,7.20
2018-11-03T11:39:08.188Z,7.90
2018-11-03T11:40:08.136Z,7.30
2018-11-03T11:42:01.052Z,7.60
2018-11-03T11:43:01.158Z,7.70
2018-11-03T11:44:53.922Z,7.70
2018-11-03T11:45:53.980Z,7.40
2018-11-03T11:47:47.282Z,7.40
2018-11-03T11:48:47.245Z,7.90
2018-11-03T11:50:40.234Z,7.60
2018-11-03T11:51:40.123Z,7.90
2018-11-03T11:53:33.021Z,8.00
2018-11-03T11:54:32.997Z,9.10
2018-11-03T11:56:26.298Z,8.50
2018-11-03T11:57:25.911Z,9.00
2018-11-03T11:59:20.029Z,7.50
2018-11-03T12:00:18.731Z,8.40
2018-11-03T12:02:11.635Z,12.90
2018-11-03T12:03:11.628Z,9.00
2018-11-03T12:05:07.017Z,7.70
2018-11-03T12:06:06.255Z,7.50
2018-11-03T12:07:57.868Z,7.20
2018-11-03T12:08:57.837Z,7.30
2018-11-03T12:10:51.216Z,7.40
2018-11-03T12:11:51.200Z,7.30
2018-11-03T12:13:44.573Z,7.60
2018-11-03T12:14:44.589Z,7.10
2018-11-03T12:16:37.949Z,12.60
2018-11-03T12:17:37.948Z,14.90
2018-11-03T12:19:31.307Z,10.70
2018-11-03T12:20:31.290Z,10.20
2018-11-03T12:22:24.179Z,7.90
2018-11-03T12:23:24.175Z,7.60
2018-11-03T12:25:17.601Z,7.60
2018-11-03T12:26:17.527Z,8.10
2018-11-03T12:28:10.920Z,8.40
2018-11-03T12:29:11.081Z,10.90
2018-11-03T12:31:04.294Z,11.00
2018-11-03T12:32:04.263Z,10.20
2018-11-03T12:33:57.674Z,13.80
2018-11-03T12:34:57.625Z,12.00
2018-11-03T12:36:50.588Z,9.30
2018-11-03T12:37:50.508Z,8.00
2018-11-03T12:39:43.888Z,6.50
2018-11-03T12:40:43.925Z,7.30
2018-11-03T12:42:37.886Z,6.50
2018-11-03T12:43:37.819Z,7.10
2018-11-03T12:45:31.274Z,6.70
2018-11-03T12:46:31.167Z,6.20
2018-11-03T12:48:24.168Z,7.00
2018-11-03T12:49:24.013Z,6.60
2018-11-03T12:51:17.404Z,5.30
2018-11-03T12:52:17.385Z,6.20
2018-11-03T12:54:10.778Z,6.40
2018-11-03T12:55:10.735Z,6.50
2018-11-03T12:57:03.615Z,7.10
2018-11-03T12:58:03.614Z,6.40
2018-11-03T12:59:56.979Z,6.70
2018-11-03T13:00:56.957Z,6.50
2018-11-03T13:02:49.843Z,4.80
2018-11-03T13:03:49.836Z,5.50
2018-11-03T13:05:43.219Z,8.20
2018-11-03T13:06:43.296Z,6.00
2018-11-03T13:08:37.006Z,6.20
2018-11-03T13:09:36.577Z,6.10
2018-11-03T13:11:29.933Z,5.70
2018-11-03T13:12:29.888Z,5.10
2018-11-03T13:14:22.856Z,7.00
2018-11-03T13:15:22.742Z,6.30
2018-11-03T13:17:15.697Z,4.80
2018-11-03T13:18:15.617Z,4.30
2018-11-03T13:20:09.241Z,5.70
2018-11-03T13:21:09.226Z,6.60
2018-11-03T13:23:03.186Z,4.40
2018-11-03T13:24:02.571Z,5.70
2018-11-03T13:25:58.025Z,3.40
2018-11-03T13:26:56.988Z,3.00
2018-11-03T13:28:50.918Z,3.50
2018-11-03T13:29:50.114Z,3.50
2018-11-03T13:31:43.062Z,3.40
2018-11-03T13:32:42.979Z,3.10
2018-11-03T13:34:36.420Z,3.40
2018-11-03T13:35:36.328Z,3.10
2018-11-03T13:37:29.792Z,3.50
2018-11-03T13:38:29.737Z,3.60
2018-11-03T13:40:23.106Z,2.90
2018-11-03T13:41:23.055Z,3.10
2018-11-03T13:43:16.436Z,3.40
2018-11-03T13:44:16.424Z,3.40
2018-11-03T13:46:09.820Z,3.20
2018-11-03T13:47:09.808Z,3.60
2018-11-03T13:49:03.149Z,3.10
2018-11-03T13:50:03.123Z,3.30
2018-11-03T13:51:56.527Z,3.70
2018-11-03T13:52:56.480Z,3.60
2018-11-03T13:54:49.375Z,3.40
2018-11-03T13:55:49.357Z,3.60
2018-11-03T13:57:42.230Z,3.90
2018-11-03T13:58:42.231Z,4.20
2018-11-03T14:00:36.136Z,3.80
2018-11-03T14:01:35.584Z,3.80
2018-11-03T14:03:28.951Z,3.90
2018-11-03T14:04:28.919Z,3.90
2018-11-03T14:06:22.348Z,3.60
2018-11-03T14:07:22.279Z,3.40
2018-11-03T14:09:17.263Z,3.70
2018-11-03T14:10:16.655Z,3.90
2018-11-03T14:12:10.104Z,4.00
2018-11-03T14:13:09.974Z,3.80
2018-11-03T14:15:02.917Z,4.00
2018-11-03T14:16:02.898Z,4.10
2018-11-03T14:17:57.347Z,3.60
2018-11-03T14:18:56.290Z,3.90
2018-11-03T14:20:49.714Z,3.90
2018-11-03T14:21:49.610Z,3.80
2018-11-03T14:23:42.500Z,4.10
2018-11-03T14:24:43.527Z,4.20
2018-11-03T14:26:35.898Z,4.00
2018-11-03T14:27:35.879Z,4.10
2018-11-03T14:29:29.780Z,4.00
2018-11-03T14:30:29.238Z,3.90
2018-11-03T14:32:22.134Z,3.90
2018-11-03T14:33:24.314Z,4.00
2018-11-03T14:35:15.175Z,3.90
2018-11-03T14:36:15.014Z,4.00
2018-11-03T14:38:07.865Z,3.40
2018-11-03T14:39:07.828Z,4.00
2018-11-03T14:41:00.771Z,3.90
2018-11-03T14:42:00.744Z,4.30
2018-11-03T14:43:56.246Z,3.90
2018-11-03T14:44:53.686Z,4.00
2018-11-03T14:46:47.071Z,4.00
2018-11-03T14:47:46.908Z,4.10
2018-11-03T14:49:40.556Z,4.70
2018-11-03T14:50:40.498Z,5.40
2018-11-03T14:52:58.450Z,5.20
2018-11-03T14:53:33.755Z,5.70
2018-11-03T14:55:29.206Z,6.30
2018-11-03T14:56:27.552Z,5.30
2018-11-03T14:58:20.937Z,4.60
2018-11-03T14:59:20.918Z,4.70
2018-11-03T15:01:14.403Z,4.80
2018-11-03T15:02:14.261Z,5.00
2018-11-03T15:04:09.003Z,5.00
2018-11-03T15:05:07.262Z,4.70
2018-11-03T15:07:00.696Z,5.00
2018-11-03T15:08:00.677Z,5.00
2018-11-03T15:09:54.038Z,5.10
2018-11-03T15:10:54.340Z,4.90
2018-11-03T15:12:46.909Z,4.70
2018-11-03T15:13:46.995Z,4.60
2018-11-03T15:15:41.844Z,4.50
2018-11-03T15:16:40.262Z,4.20
2018-11-03T15:18:33.158Z,4.20
2018-11-03T15:19:33.096Z,5.00
2018-11-03T15:21:26.472Z,3.80
2018-11-03T15:22:26.503Z,4.60
2018-11-03T15:24:19.383Z,4.30
2018-11-03T15:25:19.307Z,4.50
2018-11-03T15:27:12.720Z,4.80
2018-11-03T15:28:12.643Z,4.50
2018-11-03T15:30:05.561Z,4.60
2018-11-03T15:31:05.523Z,4.50
2018-11-03T15:32:58.402Z,5.00
2018-11-03T15:33:58.372Z,5.60
2018-11-03T15:35:51.272Z,4.50
2018-11-03T15:36:51.226Z,5.60
2018-11-03T15:38:44.123Z,5.60
2018-11-03T15:39:44.084Z,5.70
2018-11-03T15:41:37.020Z,5.30
2018-11-03T15:42:36.930Z,5.70
2018-11-03T15:44:29.823Z,5.40
2018-11-03T15:45:29.787Z,4.70
2018-11-03T15:47:23.210Z,5.60
2018-11-03T15:48:23.158Z,5.80
2018-11-03T15:50:16.541Z,5.60
2018-11-03T15:51:16.504Z,8.00
2018-11-03T15:53:09.937Z,8.70
2018-11-03T15:54:09.856Z,11.00
2018-11-03T15:56:02.759Z,10.70
2018-11-03T15:57:02.758Z,10.00
2018-11-03T15:58:56.105Z,12.70
2018-11-03T15:59:56.085Z,13.20
2018-11-03T16:01:49.463Z,17.00
2018-11-03T16:02:49.440Z,18.60
2018-11-03T16:04:42.822Z,18.10
2018-11-03T16:05:42.789Z,17.60
2018-11-03T16:07:36.244Z,17.40
2018-11-03T16:08:35.741Z,18.80
2018-11-03T16:10:28.636Z,16.40
2018-11-03T16:11:28.621Z,15.90
2018-11-03T16:13:22.167Z,16.80
2018-11-03T16:14:21.981Z,16.90
2018-11-03T16:16:14.904Z,15.80
2018-11-03T16:17:14.835Z,15.50
2018-11-03T16:19:08.209Z,13.60
2018-11-03T16:20:08.176Z,14.70
2018-11-03T16:22:01.092Z,13.70
2018-11-03T16:23:01.061Z,13.90
2018-11-03T16:24:54.481Z,12.70
2018-11-03T16:25:54.485Z,12.20
2018-11-03T16:27:47.788Z,12.20
2018-11-03T16:28:47.758Z,11.90
2018-11-03T16:30:40.644Z,11.70
2018-11-03T16:31:40.617Z,11.00
2018-11-03T16:33:33.551Z,11.50
2018-11-03T16:34:33.512Z,11.40
2018-11-03T16:36:27.467Z,10.90
2018-11-03T16:37:27.432Z,11.90
2018-11-03T16:39:20.329Z,10.30
2018-11-03T16:40:20.294Z,10.20
2018-11-03T16:42:13.678Z,10.20
2018-11-03T16:43:13.640Z,10.80
2018-11-03T16:45:06.591Z,10.30
2018-11-03T16:46:06.519Z,10.20
2018-11-03T16:47:59.888Z,9.00
2018-11-03T16:48:59.861Z,9.30
2018-11-03T16:50:53.286Z,9.00
2018-11-03T16:51:53.401Z,9.70
2018-11-03T16:53:46.148Z,8.10
2018-11-03T16:54:46.108Z,8.90
2018-11-03T16:56:39.513Z,8.50
2018-11-03T16:57:39.479Z,8.90
2018-11-03T16:59:32.920Z,8.30
2018-11-03T17:00:32.889Z,8.40
2018-11-03T17:02:25.756Z,8.70
2018-11-03T17:03:25.723Z,9.40
2018-11-03T17:05:19.094Z,8.30
2018-11-03T17:06:19.060Z,8.70
2018-11-03T17:08:11.938Z,12.10
2018-11-03T17:09:11.915Z,12.10
2018-11-03T17:11:05.300Z,14.50
2018-11-03T17:12:05.249Z,14.80
2018-11-03T17:13:58.137Z,15.40
2018-11-03T17:14:58.107Z,15.60
2018-11-03T17:16:50.992Z,16.30
2018-11-03T17:17:50.962Z,15.90
2018-11-03T17:19:43.895Z,14.40
2018-11-03T17:20:43.871Z,14.40
2018-11-03T17:22:37.227Z,14.90
2018-11-03T17:23:37.194Z,13.40
2018-11-03T17:25:30.571Z,14.20
2018-11-03T17:26:30.550Z,13.30
2018-11-03T17:28:23.434Z,14.30
2018-11-03T17:29:23.393Z,22.30
2018-11-03T17:31:16.842Z,24.50
2018-11-03T17:32:16.754Z,30.10
2018-11-03T17:34:10.137Z,29.40
2018-11-03T17:35:10.694Z,31.40
2018-11-03T17:37:03.027Z,30.70
2018-11-03T17:38:03.000Z,30.60
2018-11-03T17:39:56.341Z,31.40
2018-11-03T17:40:56.316Z,25.60
2018-11-03T17:42:49.344Z,23.10
2018-11-03T17:43:49.163Z,18.50
2018-11-03T17:45:42.558Z,17.40
2018-11-03T17:46:42.514Z,16.10
2018-11-03T17:48:35.936Z,15.20
2018-11-03T17:49:35.859Z,13.50
2018-11-03T17:51:28.766Z,13.50
2018-11-03T17:52:28.712Z,12.80
2018-11-03T17:54:21.612Z,11.80
2018-11-03T17:55:21.576Z,11.00
2018-11-03T17:57:15.006Z,11.40
2018-11-03T17:58:14.897Z,11.20
2018-11-03T18:00:08.407Z,14.30
2018-11-03T18:01:08.358Z,14.70
2018-11-03T18:03:01.136Z,14.50
2018-11-03T18:04:01.090Z,14.60
2018-11-03T18:05:54.070Z,14.50
2018-11-03T18:06:53.949Z,14.40
2018-11-03T18:08:46.822Z,16.20
2018-11-03T18:09:46.814Z,19.50
2018-11-03T18:11:40.260Z,16.90
2018-11-03T18:12:40.162Z,14.20
2018-11-03T18:14:33.025Z,13.10
2018-11-03T18:15:33.022Z,11.50
2018-11-03T18:17:26.445Z,11.70
2018-11-03T18:18:26.342Z,11.40
2018-11-03T18:20:19.730Z,10.80
2018-11-03T18:21:19.675Z,11.30
2018-11-03T18:23:12.568Z,11.70
2018-11-03T18:24:12.559Z,11.90
2018-11-03T18:26:05.928Z,11.50
2018-11-03T18:27:05.884Z,12.00
2018-11-03T18:28:58.779Z,12.90
2018-11-03T18:29:58.736Z,12.40
2018-11-03T18:31:52.125Z,12.00
2018-11-03T18:32:52.090Z,13.00
2018-11-03T18:34:45.037Z,13.60
2018-11-03T18:35:44.942Z,13.80
2018-11-03T18:37:38.343Z,14.10
2018-11-03T18:38:38.288Z,14.40
2018-11-03T18:40:31.172Z,14.10
2018-11-03T18:41:31.200Z,14.50
2018-11-03T18:43:24.031Z,13.30
2018-11-03T18:44:24.015Z,14.20
2018-11-03T18:46:16.895Z,14.60